createdAt,value
2023-03-15T00:01:30.226Z,32.30
2023-03-15T00:03:58.994Z,45.30
2023-03-15T00:06:27.580Z,47.73
2023-03-15T00:08:56.594Z,37.33
2023-03-15T00:11:25.029Z,40.43
2023-03-15T00:13:53.770Z,44.53
2023-03-15T00:16:27.034Z,32.43
2023-03-15T00:18:56.063Z,27.87
2023-03-15T00:21:25.564Z,17.93
2023-03-15T00:23:54.288Z,21.57
2023-03-15T00:26:22.873Z,25.20
2023-03-15T00:28:52.016Z,28.60
2023-03-15T00:31:24.775Z,24.73
2023-03-15T00:33:54.809Z,31.40
2023-03-15T00:36:25.774Z,29.27
2023-03-15T00:38:57.863Z,26.17
2023-03-15T00:41:26.764Z,26.80
2023-03-15T00:43:55.839Z,34.80
2023-03-15T00:46:25.757Z,36.10
2023-03-15T00:48:54.563Z,39.03
2023-03-15T00:51:25.501Z,34.33
2023-03-15T00:53:55.099Z,30.87
2023-03-15T00:56:26.892Z,35.20
2023-03-15T00:58:55.632Z,20.00
2023-03-15T01:01:28.010Z,25.37
2023-03-15T01:03:57.413Z,31.43
2023-03-15T01:06:28.585Z,37.10
2023-03-15T01:08:57.768Z,42.10
2023-03-15T01:11:28.410Z,32.83
2023-03-15T01:14:00.110Z,27.00
2023-03-15T01:16:30.199Z,27.33
2023-03-15T01:18:59.121Z,20.60
2023-03-15T01:21:27.882Z,21.50
2023-03-15T01:23:56.690Z,21.87
2023-03-15T01:26:25.497Z,29.70
2023-03-15T01:28:55.156Z,27.57
2023-03-15T01:31:25.589Z,24.87
2023-03-15T01:33:55.992Z,24.30
2023-03-15T01:36:25.493Z,23.27
2023-03-15T01:38:55.027Z,23.00
2023-03-15T01:41:29.662Z,24.67
2023-03-15T01:43:58.590Z,22.47
2023-03-15T01:46:29.856Z,17.20
2023-03-15T01:49:12.490Z,18.77
2023-03-15T01:51:47.396Z,19.53
2023-03-15T01:54:20.506Z,20.10
2023-03-15T01:56:53.979Z,22.30
2023-03-15T01:59:27.210Z,21.63
2023-03-15T02:01:57.194Z,21.70
2023-03-15T02:04:33.736Z,15.93
2023-03-15T02:07:04.565Z,18.93
2023-03-15T02:09:43.579Z,23.47
2023-03-15T02:12:12.560Z,22.33
2023-03-15T02:14:41.958Z,20.43
2023-03-15T02:17:14.180Z,13.70
2023-03-15T02:19:54.185Z,27.47
2023-03-15T02:22:33.388Z,15.50
2023-03-15T02:25:12.108Z,24.63
2023-03-15T02:27:44.607Z,24.00
2023-03-15T02:30:13.810Z,21.90
2023-03-15T02:32:44.080Z,15.07
2023-03-15T02:35:13.146Z,19.37
2023-03-15T02:37:45.995Z,23.50
2023-03-15T02:40:20.380Z,20.70
2023-03-15T02:42:54.520Z,27.40
2023-03-15T02:45:25.225Z,21.43
2023-03-15T02:47:54.160Z,18.00
2023-03-15T02:50:23.281Z,25.23
2023-03-15T02:52:52.867Z,24.97
2023-03-15T02:55:22.100Z,15.80
2023-03-15T02:57:51.945Z,20.20
2023-03-15T03:00:22.443Z,20.90
2023-03-15T03:02:51.070Z,22.83
2023-03-15T03:05:19.985Z,23.73
2023-03-15T03:07:50.210Z,17.47
2023-03-15T03:10:21.127Z,15.70
2023-03-15T03:12:55.270Z,22.70
2023-03-15T03:15:45.596Z,15.67
2023-03-15T03:18:15.754Z,22.17
2023-03-15T03:20:46.177Z,16.27
2023-03-15T03:23:14.786Z,22.00
2023-03-15T03:25:45.699Z,19.67
2023-03-15T03:28:15.610Z,20.47
2023-03-15T03:30:44.687Z,13.50
2023-03-15T03:33:15.875Z,23.83
2023-03-15T03:35:44.799Z,26.20
2023-03-15T03:38:13.864Z,17.20
2023-03-15T03:40:47.393Z,24.43
2023-03-15T03:43:17.419Z,18.33
2023-03-15T03:45:46.566Z,20.20
2023-03-15T03:48:15.165Z,17.53
2023-03-15T03:50:44.469Z,16.27
2023-03-15T03:53:12.997Z,23.43
2023-03-15T03:55:42.745Z,19.37
2023-03-15T03:58:11.498Z,23.23
2023-03-15T04:00:49.924Z,21.13
2023-03-15T04:03:18.427Z,23.13
2023-03-15T04:05:52.925Z,17.67
2023-03-15T04:08:24.803Z,29.73
2023-03-15T04:10:54.392Z,19.40
2023-03-15T04:13:25.695Z,22.37
2023-03-15T04:15:57.672Z,27.23
2023-03-15T04:18:29.963Z,21.93
2023-03-15T04:20:58.897Z,19.60
2023-03-15T04:23:27.589Z,24.33
2023-03-15T04:26:14.744Z,16.03
2023-03-15T04:29:10.828Z,20.90
2023-03-15T04:32:01.585Z,20.17
2023-03-15T04:34:51.417Z,19.93
2023-03-15T04:37:42.477Z,22.53
2023-03-15T04:40:39.096Z,31.70
2023-03-15T04:43:40.500Z,20.77
2023-03-15T04:46:25.116Z,27.53
2023-03-15T04:49:14.050Z,26.00
2023-03-15T04:51:54.875Z,21.17
2023-03-15T04:54:46.714Z,24.17
2023-03-15T04:57:41.607Z,23.17
2023-03-15T05:00:36.847Z,16.97
2023-03-15T05:03:08.495Z,19.77
2023-03-15T05:06:07.968Z,18.33
2023-03-15T05:08:55.612Z,26.17
2023-03-15T05:11:50.928Z,17.43
2023-03-15T05:14:54.532Z,16.77
2023-03-15T05:17:55.106Z,24.57
2023-03-15T05:20:59.102Z,16.80
2023-03-15T05:23:57.501Z,16.60
2023-03-15T05:26:46.481Z,11.67
2023-03-15T05:29:34.410Z,22.40
2023-03-15T05:32:19.438Z,18.30
2023-03-15T05:35:16.430Z,13.63
2023-03-15T05:38:14.419Z,19.30
2023-03-15T05:41:18.019Z,16.57
2023-03-15T05:43:54.501Z,14.80
2023-03-15T05:46:23.545Z,23.53
2023-03-15T05:49:15.230Z,11.23
2023-03-15T05:52:13.545Z,16.77
2023-03-15T05:54:58.277Z,19.43
2023-03-15T05:57:51.440Z,13.97
2023-03-15T06:00:38.137Z,17.20
2023-03-15T06:03:17.109Z,13.87
2023-03-15T06:06:01.181Z,21.70
2023-03-15T06:08:37.471Z,22.40
2023-03-15T06:11:07.180Z,17.43
2023-03-15T06:13:37.527Z,21.20
2023-03-15T06:16:12.621Z,18.00
2023-03-15T06:18:45.379Z,27.20
2023-03-15T06:21:13.892Z,17.43
2023-03-15T06:23:43.070Z,26.40
2023-03-15T06:26:12.037Z,20.13
2023-03-15T06:28:42.774Z,16.13
2023-03-15T06:31:13.165Z,27.47
2023-03-15T06:33:51.197Z,26.93
2023-03-15T06:36:21.290Z,27.93
2023-03-15T06:38:50.077Z,27.77
2023-03-15T06:41:19.396Z,28.50
2023-03-15T06:43:49.985Z,23.43
2023-03-15T06:46:18.605Z,24.97
2023-03-15T06:48:47.433Z,25.43
2023-03-15T06:51:17.093Z,15.63
2023-03-15T06:53:45.821Z,25.40
2023-03-15T06:56:14.295Z,31.77
2023-03-15T06:58:43.124Z,28.60
2023-03-15T07:01:15.224Z,16.90
2023-03-15T07:03:44.400Z,28.70
2023-03-15T07:06:12.883Z,16.57
2023-03-15T07:08:41.662Z,14.07
2023-03-15T07:11:10.336Z,24.50
2023-03-15T07:13:39.071Z,22.60
2023-03-15T07:16:07.876Z,24.17
2023-03-15T07:18:38.080Z,25.60
2023-03-15T07:21:08.170Z,21.13
2023-03-15T07:23:36.949Z,23.87
2023-03-15T07:26:05.753Z,25.63
2023-03-15T07:28:34.794Z,23.83
2023-03-15T07:31:05.188Z,38.10
2023-03-15T07:33:35.870Z,35.03
2023-03-15T07:36:07.930Z,79.17
2023-03-15T07:38:37.466Z,25.93
2023-03-15T07:41:07.301Z,30.73
2023-03-15T07:43:39.848Z,29.10
2023-03-15T07:46:17.047Z,30.53
2023-03-15T07:48:48.213Z,51.00
2023-03-15T07:51:18.122Z,36.27
2023-03-15T07:53:46.888Z,48.90
2023-03-15T07:56:15.514Z,48.73
2023-03-15T07:58:44.290Z,41.00
2023-03-15T08:01:12.825Z,37.57
2023-03-15T08:03:41.711Z,50.00
2023-03-15T08:06:10.319Z,36.07
2023-03-15T08:08:40.582Z,32.07
2023-03-15T08:11:09.108Z,42.27
2023-03-15T08:13:38.260Z,27.33
2023-03-15T08:16:07.200Z,44.03
2023-03-15T08:18:35.992Z,58.27
2023-03-15T08:21:04.948Z,46.50
2023-03-15T08:23:33.676Z,34.27
2023-03-15T08:26:03.758Z,47.40
2023-03-15T08:28:32.510Z,30.87
2023-03-15T08:31:01.082Z,37.03
2023-03-15T08:33:30.514Z,29.07
2023-03-15T08:35:59.051Z,27.97
2023-03-15T08:38:27.942Z,22.77
2023-03-15T08:41:00.009Z,30.93
2023-03-15T08:43:30.480Z,30.57
2023-03-15T08:46:01.719Z,77.23
2023-03-15T08:48:31.565Z,35.60
2023-03-15T08:51:04.082Z,27.23
2023-03-15T08:53:33.224Z,33.53
2023-03-15T08:56:01.941Z,33.60
2023-03-15T08:58:32.058Z,22.67
2023-03-15T09:01:00.908Z,24.60
2023-03-15T09:03:30.056Z,26.83
2023-03-15T09:05:59.066Z,38.40
2023-03-15T09:08:28.326Z,36.70
2023-03-15T09:10:57.073Z,47.17
2023-03-15T09:13:27.246Z,36.97
2023-03-15T09:15:58.098Z,27.80
2023-03-15T09:18:27.006Z,25.80
2023-03-15T09:20:57.647Z,25.53
2023-03-15T09:23:26.730Z,22.87
2023-03-15T09:25:55.212Z,24.60
2023-03-15T09:28:25.507Z,18.27
2023-03-15T09:30:54.640Z,38.93
2023-03-15T09:33:24.933Z,32.23
2023-03-15T09:35:54.159Z,23.20
2023-03-15T09:38:24.144Z,19.93
2023-03-15T09:40:57.467Z,32.13
2023-03-15T09:43:53.033Z,26.30
2023-03-15T09:46:29.039Z,20.30
2023-03-15T09:49:06.177Z,25.97
2023-03-15T09:51:42.090Z,25.90
2023-03-15T09:54:15.815Z,26.03
2023-03-15T09:56:51.570Z,28.07
2023-03-15T09:59:22.852Z,36.20
2023-03-15T10:01:56.337Z,33.33
2023-03-15T10:04:31.961Z,20.30
2023-03-15T10:07:02.923Z,22.60
2023-03-15T10:09:34.471Z,34.03
2023-03-15T10:12:09.787Z,23.87
2023-03-15T10:15:01.528Z,18.20
2023-03-15T10:17:38.278Z,23.17
2023-03-15T10:20:14.505Z,32.53
2023-03-15T10:22:52.105Z,17.57
2023-03-15T10:25:26.121Z,24.33
2023-03-15T10:27:58.635Z,30.67
2023-03-15T10:30:29.444Z,18.30
2023-03-15T10:33:02.982Z,29.63
2023-03-15T10:35:33.549Z,36.57
2023-03-15T10:38:02.668Z,24.43
2023-03-15T10:40:43.842Z,30.70
2023-03-15T10:43:20.837Z,22.37
2023-03-15T10:46:00.645Z,33.33
2023-03-15T10:48:29.863Z,29.27
2023-03-15T10:51:05.205Z,27.37
2023-03-15T10:53:33.743Z,29.57
2023-03-15T10:56:06.685Z,26.53
2023-03-15T10:58:43.459Z,21.77
2023-03-15T11:01:23.609Z,15.83
2023-03-15T11:04:07.888Z,20.43
2023-03-15T11:06:43.703Z,23.80
2023-03-15T11:09:14.894Z,18.97
2023-03-15T11:11:55.795Z,31.43
2023-03-15T11:14:24.995Z,32.40
2023-03-15T11:16:57.188Z,39.53
2023-03-15T11:19:29.121Z,54.67
2023-03-15T11:22:01.014Z,69.70
2023-03-15T11:24:31.265Z,75.53
2023-03-15T11:27:02.783Z,55.00
2023-03-15T11:29:33.194Z,39.80
2023-03-15T11:32:04.967Z,27.67
2023-03-15T11:34:41.849Z,32.27
2023-03-15T11:37:20.294Z,31.10
2023-03-15T11:40:05.143Z,22.33
2023-03-15T11:42:48.520Z,25.33
2023-03-15T11:45:22.660Z,25.47
2023-03-15T11:47:55.643Z,25.90
2023-03-15T11:50:24.114Z,19.67
2023-03-15T11:52:54.635Z,28.73
2023-03-15T11:55:27.530Z,42.93
2023-03-15T11:57:58.002Z,37.93
2023-03-15T12:00:53.522Z,21.63
2023-03-15T12:03:41.271Z,30.10
2023-03-15T12:06:29.341Z,23.40
2023-03-15T12:08:59.479Z,24.20
2023-03-15T12:11:48.592Z,30.20
2023-03-15T12:14:31.013Z,21.90
2023-03-15T12:17:32.433Z,20.83
2023-03-15T12:20:03.292Z,33.17
2023-03-15T12:22:34.126Z,18.53
2023-03-15T12:25:14.633Z,17.97
2023-03-15T12:27:50.081Z,16.63
2023-03-15T12:30:23.656Z,28.60
2023-03-15T12:32:55.752Z,17.03
2023-03-15T12:35:29.232Z,13.70
2023-03-15T12:38:01.473Z,23.43
2023-03-15T12:40:59.784Z,21.27
2023-03-15T12:43:39.339Z,23.87
2023-03-15T12:46:08.761Z,20.57
2023-03-15T12:48:37.289Z,18.27
2023-03-15T12:51:36.324Z,18.00
2023-03-15T12:54:05.890Z,16.93
2023-03-15T12:56:44.339Z,15.53
2023-03-15T12:59:33.098Z,15.00
2023-03-15T13:02:09.872Z,14.10
2023-03-15T13:04:40.005Z,21.70
2023-03-15T13:07:24.627Z,21.37
2023-03-15T13:10:17.216Z,24.57
2023-03-15T13:12:55.399Z,21.83
2023-03-15T13:15:28.094Z,26.33
2023-03-15T13:17:59.398Z,15.90
2023-03-15T13:20:42.602Z,19.33
2023-03-15T13:23:17.710Z,15.90
2023-03-15T13:25:55.614Z,23.13
2023-03-15T13:28:37.308Z,16.27
2023-03-15T13:31:14.384Z,16.90
2023-03-15T13:33:43.374Z,18.30
2023-03-15T13:36:15.144Z,26.17
2023-03-15T13:38:45.516Z,30.60
2023-03-15T13:41:19.829Z,12.80
2023-03-15T13:43:51.561Z,16.83
2023-03-15T13:46:23.368Z,24.23
2023-03-15T13:48:56.162Z,20.60
2023-03-15T13:51:27.734Z,16.67
2023-03-15T13:54:02.110Z,27.07
2023-03-15T13:56:47.055Z,28.17
2023-03-15T13:59:20.264Z,34.27
2023-03-15T14:01:54.038Z,38.67
2023-03-15T14:04:24.673Z,40.73
2023-03-15T14:07:03.952Z,55.70
2023-03-15T14:09:32.723Z,55.50
2023-03-15T14:12:07.177Z,73.63
2023-03-15T14:14:47.477Z,68.53
2023-03-15T14:17:25.721Z,44.17
2023-03-15T14:19:56.731Z,25.03
2023-03-15T14:22:32.015Z,37.67
2023-03-15T14:25:01.263Z,20.97
2023-03-15T14:27:30.638Z,18.60
2023-03-15T14:30:02.924Z,24.33
2023-03-15T14:32:34.109Z,24.57
2023-03-15T14:35:05.549Z,21.10
2023-03-15T14:37:38.904Z,25.73
2023-03-15T14:40:16.414Z,16.67
2023-03-15T14:42:45.028Z,17.43
2023-03-15T14:45:15.989Z,22.47
2023-03-15T14:48:01.588Z,15.67
2023-03-15T14:50:35.814Z,24.63
2023-03-15T14:53:05.309Z,21.37
2023-03-15T14:55:36.854Z,17.37
2023-03-15T14:58:10.800Z,20.70
2023-03-15T15:00:41.548Z,18.80
2023-03-15T15:03:22.262Z,19.80
2023-03-15T15:05:51.613Z,16.90
2023-03-15T15:08:22.712Z,21.03
2023-03-15T15:10:54.497Z,35.07
2023-03-15T15:13:24.485Z,20.33
2023-03-15T15:15:56.704Z,28.27
2023-03-15T15:18:27.711Z,29.30
2023-03-15T15:20:57.696Z,19.33
2023-03-15T15:23:28.430Z,21.00
2023-03-15T15:25:59.898Z,26.07
2023-03-15T15:28:37.639Z,23.40
2023-03-15T15:31:08.404Z,21.17
2023-03-15T15:33:37.407Z,29.10
2023-03-15T15:36:12.225Z,28.73
2023-03-15T15:38:41.047Z,34.67
2023-03-15T15:41:15.814Z,21.77
2023-03-15T15:43:44.860Z,21.17
2023-03-15T15:46:15.661Z,38.17
2023-03-15T15:48:44.620Z,19.43
2023-03-15T15:51:22.098Z,17.80
2023-03-15T15:53:51.227Z,24.30
2023-03-15T15:56:20.317Z,23.67
2023-03-15T15:58:49.995Z,21.87
2023-03-15T16:01:20.354Z,24.80
2023-03-15T16:03:48.897Z,16.80
2023-03-15T16:06:20.332Z,28.43
2023-03-15T16:08:51.870Z,28.30
2023-03-15T16:11:22.185Z,19.97
2023-03-15T16:13:53.889Z,28.70
2023-03-15T16:16:24.439Z,24.37
2023-03-15T16:18:53.143Z,20.57
2023-03-15T16:21:28.663Z,32.77
2023-03-15T16:24:02.653Z,20.13
2023-03-15T16:26:31.723Z,26.30
2023-03-15T16:29:00.366Z,25.47
2023-03-15T16:31:34.630Z,20.70
2023-03-15T16:34:03.292Z,23.83
2023-03-15T16:36:34.591Z,22.70
2023-03-15T16:39:03.399Z,25.53
2023-03-15T16:41:32.170Z,29.40
2023-03-15T16:44:01.338Z,20.83
2023-03-15T16:46:31.603Z,19.83
2023-03-15T16:49:00.331Z,27.73
2023-03-15T16:51:29.363Z,31.27
2023-03-15T16:54:12.585Z,27.73
2023-03-15T16:56:45.545Z,25.13
2023-03-15T16:59:16.312Z,23.60
2023-03-15T17:01:47.464Z,23.87
2023-03-15T17:04:16.500Z,31.40
2023-03-15T17:06:47.175Z,23.33
2023-03-15T17:09:19.004Z,25.10
2023-03-15T17:11:50.041Z,23.70
2023-03-15T17:14:21.522Z,27.63
2023-03-15T17:16:52.285Z,28.20
2023-03-15T17:19:21.195Z,28.00
2023-03-15T17:21:50.413Z,26.27
2023-03-15T17:24:19.253Z,33.23
2023-03-15T17:26:48.475Z,26.40
2023-03-15T17:29:23.740Z,23.30
2023-03-15T17:31:54.244Z,27.73
2023-03-15T17:34:23.497Z,34.70
2023-03-15T17:36:53.515Z,26.97
2023-03-15T17:39:22.604Z,37.27
2023-03-15T17:41:51.350Z,35.60
2023-03-15T17:44:19.853Z,30.87
2023-03-15T17:46:48.943Z,25.03
2023-03-15T17:49:19.268Z,27.30
2023-03-15T17:51:49.108Z,26.27
2023-03-15T17:54:19.163Z,30.17
2023-03-15T17:56:48.407Z,25.60
2023-03-15T17:59:17.454Z,23.23
2023-03-15T18:01:48.848Z,24.97
2023-03-15T18:04:21.335Z,23.07
2023-03-15T18:06:50.542Z,27.17
2023-03-15T18:09:22.152Z,36.87
2023-03-15T18:11:53.365Z,37.07
2023-03-15T18:14:22.491Z,26.20
2023-03-15T18:16:52.224Z,25.13
2023-03-15T18:19:23.600Z,31.20
2023-03-15T18:21:52.994Z,28.13
2023-03-15T18:24:22.016Z,29.90
2023-03-15T18:26:52.771Z,33.77
2023-03-15T18:29:21.635Z,31.30
2023-03-15T18:31:51.341Z,37.90
2023-03-15T18:34:21.993Z,38.40
2023-03-15T18:36:52.897Z,31.50
2023-03-15T18:39:22.507Z,31.93
2023-03-15T18:41:51.321Z,36.83
2023-03-15T18:44:19.952Z,43.73
2023-03-15T18:46:48.736Z,34.93
2023-03-15T18:49:17.356Z,38.07
2023-03-15T18:51:46.103Z,29.73
2023-03-15T18:54:15.963Z,25.20
2023-03-15T18:56:44.684Z,33.17
2023-03-15T18:59:13.267Z,50.17
2023-03-15T19:01:43.133Z,44.97
2023-03-15T19:04:12.274Z,41.93
2023-03-15T19:06:41.110Z,35.10
2023-03-15T19:09:09.881Z,39.10
2023-03-15T19:11:41.811Z,41.27
2023-03-15T19:14:10.637Z,33.33
2023-03-15T19:16:39.656Z,38.57
2023-03-15T19:19:08.479Z,42.53
2023-03-15T19:21:38.784Z,34.80
2023-03-15T19:24:09.514Z,35.00
2023-03-15T19:26:39.980Z,37.73
2023-03-15T19:29:08.613Z,36.60
2023-03-15T19:31:38.739Z,35.27
2023-03-15T19:34:07.802Z,35.73
2023-03-15T19:36:36.622Z,33.97
2023-03-15T19:39:07.158Z,43.20
2023-03-15T19:41:35.947Z,40.33
2023-03-15T19:44:05.924Z,42.20
2023-03-15T19:46:34.844Z,32.77
2023-03-15T19:49:04.277Z,46.93
2023-03-15T19:51:33.164Z,44.70
2023-03-15T19:54:02.525Z,40.23
2023-03-15T19:56:31.311Z,38.47
2023-03-15T19:58:59.860Z,35.80
2023-03-15T20:01:30.275Z,36.10
2023-03-15T20:03:58.914Z,39.77
2023-03-15T20:06:27.865Z,39.23
2023-03-15T20:08:56.424Z,34.90
2023-03-15T20:11:26.025Z,32.50
2023-03-15T20:13:55.048Z,36.83
2023-03-15T20:16:24.298Z,37.50
2023-03-15T20:18:55.752Z,53.23
2023-03-15T20:21:24.961Z,41.23
2023-03-15T20:23:54.110Z,34.20
2023-03-15T20:26:23.879Z,40.97
2023-03-15T20:28:52.669Z,45.97
2023-03-15T20:31:21.866Z,44.40
2023-03-15T20:33:51.381Z,41.60
2023-03-15T20:36:21.828Z,39.97
2023-03-15T20:38:50.552Z,39.20
2023-03-15T20:41:19.336Z,39.77
2023-03-15T20:43:48.273Z,48.90
2023-03-15T20:46:19.289Z,43.07
2023-03-15T20:48:47.946Z,46.43
2023-03-15T20:51:16.738Z,43.77
2023-03-15T20:53:46.768Z,63.80
2023-03-15T20:56:16.554Z,54.33
2023-03-15T20:58:45.104Z,59.77
2023-03-15T21:01:16.734Z,63.40
2023-03-15T21:03:45.980Z,68.93
2023-03-15T21:06:15.197Z,67.77
2023-03-15T21:08:44.124Z,77.23
2023-03-15T21:11:14.379Z,70.80
2023-03-15T21:13:42.968Z,74.83
2023-03-15T21:16:13.445Z,71.23
2023-03-15T21:18:47.669Z,82.00
2023-03-15T21:21:16.688Z,88.43
2023-03-15T21:23:45.442Z,86.40
2023-03-15T21:26:15.724Z,81.50
2023-03-15T21:28:44.523Z,82.67
2023-03-15T21:31:13.476Z,76.60
2023-03-15T21:33:42.025Z,75.63
2023-03-15T21:36:12.190Z,69.40
2023-03-15T21:38:40.850Z,68.03
2023-03-15T21:41:11.236Z,73.40
2023-03-15T21:43:41.518Z,77.77
2023-03-15T21:46:13.037Z,67.83
2023-03-15T21:48:42.747Z,63.40
2023-03-15T21:51:14.697Z,65.30
2023-03-15T21:53:43.507Z,65.27
2023-03-15T21:56:13.840Z,67.40
2023-03-15T21:58:43.907Z,67.57
2023-03-15T22:01:14.857Z,73.03
2023-03-15T22:03:44.263Z,72.00
2023-03-15T22:06:13.601Z,80.73
2023-03-15T22:08:42.501Z,70.77
2023-03-15T22:11:11.407Z,69.83
2023-03-15T22:13:41.601Z,82.83
2023-03-15T22:16:12.697Z,71.17
2023-03-15T22:18:41.412Z,58.87
2023-03-15T22:21:10.109Z,60.80
2023-03-15T22:23:38.638Z,51.80
2023-03-15T22:26:07.607Z,50.40
2023-03-15T22:28:36.276Z,38.77
2023-03-15T22:31:05.180Z,54.17
2023-03-15T22:33:35.148Z,49.37
2023-03-15T22:36:04.394Z,50.73
2023-03-15T22:38:37.648Z,49.97
2023-03-15T22:41:08.414Z,36.50
2023-03-15T22:43:38.860Z,48.47
2023-03-15T22:46:08.145Z,38.17
2023-03-15T22:48:38.097Z,27.63
2023-03-15T22:51:09.630Z,42.87
2023-03-15T22:53:38.175Z,35.83
2023-03-15T22:56:07.297Z,35.10
2023-03-15T22:58:36.415Z,37.60
2023-03-15T23:01:05.479Z,30.63
2023-03-15T23:03:34.140Z,30.93
2023-03-15T23:06:04.690Z,32.10
2023-03-15T23:08:33.152Z,28.10
2023-03-15T23:11:01.869Z,25.90
2023-03-15T23:13:30.396Z,35.00
2023-03-15T23:15:59.211Z,33.57
2023-03-15T23:18:27.704Z,31.87
2023-03-15T23:21:06.744Z,34.90
2023-03-15T23:23:35.759Z,30.47
2023-03-15T23:26:04.476Z,31.10
2023-03-15T23:28:33.238Z,42.23
2023-03-15T23:31:03.054Z,46.37
2023-03-15T23:36:18.382Z,39.80
2023-03-15T23:38:46.844Z,40.70
2023-03-15T23:41:15.545Z,38.13
2023-03-15T23:43:44.085Z,42.33
2023-03-15T23:46:14.527Z,35.43
2023-03-15T23:48:43.196Z,42.97
2023-03-15T23:51:12.643Z,36.93
2023-03-15T23:53:42.767Z,34.77
2023-03-15T23:56:11.766Z,37.60
2023-03-15T23:58:40.700Z,35.37
